createdAt,value
2022-08-05T00:00:53.518Z,50.43
2022-08-05T00:02:53.650Z,50.67
2022-08-05T00:04:55.786Z,50.88
2022-08-05T00:08:34.157Z,88.98
2022-08-05T00:10:11.334Z,74.26
2022-08-05T00:12:13.208Z,67.43
2022-08-05T00:14:12.082Z,62.96
2022-08-05T00:16:12.561Z,60.65
2022-08-05T00:18:21.849Z,58.63
2022-08-05T00:20:11.916Z,57.23
2022-08-05T00:22:12.140Z,56.32
2022-08-05T00:24:15.981Z,55.58
2022-08-05T00:26:12.287Z,54.85
2022-08-05T00:28:12.749Z,54.39
2022-08-05T00:30:11.721Z,53.84
2022-08-05T00:32:14.757Z,53.56
2022-08-05T00:34:53.413Z,53.36
2022-08-05T00:36:16.487Z,53.03
2022-08-05T00:38:13.095Z,53.03
2022-08-05T00:40:12.175Z,52.63
2022-08-05T00:42:12.412Z,52.40
2022-08-05T00:44:13.426Z,52.33
2022-08-05T00:46:12.653Z,52.17
2022-08-05T00:48:12.722Z,51.95
2022-08-05T00:50:12.898Z,52.21
2022-08-05T00:52:12.971Z,51.76
2022-08-05T00:54:13.105Z,51.66
2022-08-05T00:56:13.251Z,51.50
2022-08-05T00:58:13.491Z,51.47
2022-08-05T01:00:13.490Z,51.47
2022-08-05T01:02:13.858Z,51.22
2022-08-05T01:04:15.700Z,51.35
2022-08-05T01:06:15.477Z,51.50
2022-08-05T01:08:40.890Z,51.50
2022-08-05T01:10:15.131Z,51.44
2022-08-05T01:12:18.628Z,51.63
2022-08-05T01:14:15.624Z,51.35
2022-08-05T01:16:14.528Z,51.38
2022-08-05T01:18:15.713Z,51.28
2022-08-05T01:20:14.951Z,51.22
2022-08-05T01:22:15.613Z,51.28
2022-08-05T01:24:15.168Z,51.16
2022-08-05T01:26:15.405Z,51.22
2022-08-05T01:28:15.344Z,50.97
2022-08-05T01:30:19.072Z,50.91
2022-08-05T01:32:18.534Z,51.07
2022-08-05T01:34:15.819Z,50.94
2022-08-05T01:36:16.198Z,50.79
2022-08-05T01:38:27.266Z,50.55
2022-08-05T01:40:17.949Z,50.61
2022-08-05T01:42:16.256Z,50.61
2022-08-05T01:44:16.288Z,50.70
2022-08-05T01:46:42.019Z,50.61
2022-08-05T01:48:17.543Z,50.55
2022-08-05T01:50:17.327Z,50.58
2022-08-05T01:52:17.558Z,50.40
2022-08-05T01:54:18.010Z,50.52
2022-08-05T01:58:12.975Z,50.52
2022-08-05T01:58:18.279Z,50.40
2022-08-05T02:00:18.412Z,50.49
2022-08-05T02:02:17.517Z,50.58
2022-08-05T02:04:17.759Z,50.43
2022-08-05T02:06:37.409Z,50.46
2022-08-05T02:08:30.664Z,50.55
2022-08-05T02:10:19.066Z,50.43
2022-08-05T02:12:19.174Z,50.31
2022-08-05T02:14:18.279Z,50.31
2022-08-05T02:16:18.442Z,50.40
2022-08-05T02:18:31.727Z,50.19
2022-08-05T02:20:20.808Z,50.19
2022-08-05T02:22:25.929Z,50.16
2022-08-05T02:24:22.140Z,50.37
2022-08-05T02:26:19.195Z,50.10
2022-08-05T02:28:28.912Z,50.04
2022-08-05T02:30:20.254Z,50.10
2022-08-05T02:32:23.991Z,50.16
2022-08-05T02:34:20.555Z,50.16
2022-08-05T02:36:19.658Z,50.16
2022-08-05T02:38:19.915Z,50.28
2022-08-05T02:40:20.935Z,50.28
2022-08-05T02:42:25.646Z,50.34
2022-08-05T02:44:21.186Z,50.28
2022-08-05T02:46:20.318Z,50.40
2022-08-05T02:48:21.515Z,50.31
2022-08-05T02:50:21.619Z,50.34
2022-08-05T02:52:30.036Z,50.28
2022-08-05T02:54:35.668Z,50.25
2022-08-05T02:56:22.077Z,50.04
2022-08-05T02:58:21.668Z,50.16
2022-08-05T03:00:21.305Z,50.25
2022-08-05T03:02:21.426Z,50.34
2022-08-05T03:04:23.090Z,50.22
2022-08-05T03:06:56.161Z,50.43
2022-08-05T03:08:29.733Z,50.34
2022-08-05T03:10:25.068Z,50.34
2022-08-05T03:12:22.031Z,50.13
2022-08-05T03:14:22.229Z,50.28
2022-08-05T03:16:22.307Z,50.07
2022-08-05T03:18:24.692Z,50.10
2022-08-05T03:20:24.567Z,50.10
2022-08-05T03:22:32.006Z,50.10
2022-08-05T03:24:30.289Z,50.19
2022-08-05T03:26:32.113Z,50.19
2022-08-05T03:28:24.180Z,50.25
2022-08-05T03:30:23.339Z,50.34
2022-08-05T03:32:31.090Z,50.46
2022-08-05T03:34:24.630Z,50.34
2022-08-05T03:36:30.283Z,50.22
2022-08-05T03:38:33.323Z,50.28
2022-08-05T03:40:32.059Z,50.28
2022-08-05T03:42:27.149Z,50.40
2022-08-05T03:44:24.292Z,50.46
2022-08-05T03:46:29.538Z,50.46
2022-08-05T03:48:27.454Z,50.49
2022-08-05T03:50:25.811Z,50.22
2022-08-05T03:52:36.872Z,50.52
2022-08-05T03:55:51.764Z,50.40
2022-08-05T03:56:30.686Z,50.34
2022-08-05T03:58:28.965Z,50.55
2022-08-05T04:00:25.291Z,50.67
2022-08-05T04:02:37.716Z,50.58
2022-08-05T04:04:26.637Z,50.73
2022-08-05T04:06:25.615Z,50.67
2022-08-05T04:08:36.584Z,50.79
2022-08-05T04:10:27.748Z,50.61
2022-08-05T04:12:25.985Z,50.67
2022-08-05T04:14:29.771Z,50.70
2022-08-05T04:17:55.910Z,88.98
2022-08-05T04:19:43.231Z,73.10
2022-08-05T04:22:09.703Z,65.60
2022-08-05T04:24:05.642Z,61.49
2022-08-05T04:26:00.406Z,58.75
2022-08-05T04:27:58.078Z,57.04
2022-08-05T04:29:43.933Z,55.58
2022-08-05T04:31:43.125Z,54.50
2022-08-05T04:33:54.796Z,54.01
2022-08-05T04:36:16.661Z,53.40
2022-08-05T04:38:00.957Z,52.86
2022-08-05T04:39:44.729Z,52.56
2022-08-05T04:41:44.742Z,52.08
2022-08-05T04:43:48.105Z,51.69
2022-08-05T04:45:49.041Z,51.50
2022-08-05T04:47:45.106Z,51.28
2022-08-05T04:50:01.689Z,51.22
2022-08-05T04:51:45.302Z,51.16
2022-08-05T04:53:44.462Z,51.01
2022-08-05T04:56:15.147Z,50.82
2022-08-05T04:57:47.469Z,50.64
2022-08-05T04:59:44.842Z,50.70
2022-08-05T05:02:06.953Z,50.61
2022-08-05T05:03:46.057Z,50.58
2022-08-05T05:06:39.617Z,50.64
2022-08-05T05:07:55.230Z,50.76
2022-08-05T05:09:46.535Z,50.55
2022-08-05T05:11:54.602Z,50.61
2022-08-05T05:13:46.667Z,50.40
2022-08-05T05:15:57.512Z,50.40
2022-08-05T05:17:56.911Z,50.43
2022-08-05T05:19:47.592Z,50.58
2022-08-05T05:21:46.443Z,50.52
2022-08-05T05:24:04.244Z,50.52
2022-08-05T05:25:47.771Z,50.49
2022-08-05T05:27:53.761Z,50.46
2022-08-05T05:30:04.111Z,50.25
2022-08-05T05:31:47.649Z,50.61
2022-08-05T05:33:59.733Z,50.31
2022-08-05T05:35:48.084Z,50.37
2022-08-05T05:38:01.491Z,50.31
2022-08-05T05:39:48.105Z,50.49
2022-08-05T05:41:54.430Z,50.34
2022-08-05T05:43:57.268Z,50.22
2022-08-05T05:45:48.622Z,50.16
2022-08-05T05:48:06.906Z,50.07
2022-08-05T05:49:56.561Z,50.31
2022-08-05T05:51:50.006Z,50.01
2022-08-05T05:53:58.167Z,49.74
2022-08-05T05:55:51.425Z,49.92
2022-08-05T05:57:52.613Z,49.48
2022-08-05T05:59:48.769Z,49.45
2022-08-05T06:01:57.563Z,49.16
2022-08-05T06:04:00.833Z,48.94
2022-08-05T06:05:54.096Z,48.96
2022-08-05T06:08:01.121Z,48.79
2022-08-05T06:10:04.401Z,48.40
2022-08-05T06:12:01.160Z,48.54
2022-08-05T06:13:55.278Z,48.26
2022-08-05T06:16:31.570Z,48.04
2022-08-05T06:17:53.558Z,47.88
2022-08-05T06:19:56.861Z,47.74
2022-08-05T06:21:50.638Z,47.61
2022-08-05T06:23:49.955Z,47.61
2022-08-05T06:26:12.620Z,47.34
2022-08-05T06:28:11.032Z,47.32
2022-08-05T06:30:04.548Z,47.37
2022-08-05T06:31:51.178Z,47.16
2022-08-05T06:34:07.117Z,47.34
2022-08-05T06:36:07.270Z,47.21
2022-08-05T06:37:58.127Z,47.24
2022-08-05T06:39:51.623Z,47.18
2022-08-05T06:41:50.690Z,47.08
2022-08-05T06:43:57.660Z,47.13
2022-08-05T06:46:07.310Z,47.13
2022-08-05T06:48:37.016Z,47.08
2022-08-05T06:50:01.932Z,47.03
2022-08-05T06:51:52.340Z,47.08
2022-08-05T06:53:53.594Z,46.87
2022-08-05T06:55:51.504Z,46.66
2022-08-05T06:58:02.922Z,46.46
2022-08-05T06:59:56.520Z,46.15
2022-08-05T07:01:53.192Z,46.05
2022-08-05T07:03:51.895Z,45.75
2022-08-05T07:05:52.079Z,46.00
2022-08-05T07:07:53.178Z,45.56
2022-08-05T07:09:55.397Z,45.36
2022-08-05T07:11:53.395Z,45.56
2022-08-05T07:13:57.596Z,45.36
2022-08-05T07:16:01.651Z,45.21
2022-08-05T07:18:02.277Z,44.83
2022-08-05T07:22:00.106Z,44.31
2022-08-05T07:23:54.140Z,44.17
2022-08-05T07:25:56.508Z,43.67
2022-08-05T07:27:57.993Z,43.67
2022-08-05T07:30:24.749Z,43.40
2022-08-05T07:31:55.336Z,43.22
2022-08-05T07:33:53.760Z,43.22
2022-08-05T07:36:04.333Z,43.05
2022-08-05T07:37:55.036Z,42.96
2022-08-05T07:40:26.950Z,42.96
2022-08-05T07:42:14.783Z,42.74
2022-08-05T07:43:56.472Z,43.05
2022-08-05T07:45:56.993Z,42.92
2022-08-05T07:47:55.698Z,42.87
2022-08-05T07:49:54.832Z,43.00
2022-08-05T07:51:55.275Z,42.87
2022-08-05T07:53:55.032Z,42.57
2022-08-05T07:56:05.627Z,42.36
2022-08-05T07:58:02.733Z,42.61
2022-08-05T07:59:56.328Z,42.61
2022-08-05T08:01:57.526Z,42.78
2022-08-05T08:03:55.570Z,42.78
2022-08-05T08:05:55.624Z,43.00
2022-08-05T08:07:59.761Z,43.13
2022-08-05T08:09:55.840Z,43.36
2022-08-05T08:12:00.224Z,43.81
2022-08-05T08:14:00.817Z,43.94
2022-08-05T08:16:35.017Z,44.22
2022-08-05T08:17:57.250Z,44.17
2022-08-05T08:20:23.478Z,44.26
2022-08-05T08:21:57.483Z,44.36
2022-08-05T08:24:01.044Z,44.55
2022-08-05T08:25:59.810Z,44.36
2022-08-05T08:27:56.806Z,44.45
2022-08-05T08:30:05.481Z,44.17
2022-08-05T08:31:58.071Z,44.17
2022-08-05T08:33:57.206Z,43.94
2022-08-05T08:36:12.961Z,43.90
2022-08-05T08:37:58.492Z,43.67
2022-08-05T08:39:57.716Z,43.62
2022-08-05T08:42:00.201Z,43.00
2022-08-05T08:45:18.683Z,42.44
2022-08-05T08:45:59.099Z,41.60
2022-08-05T08:48:07.686Z,40.80
2022-08-05T08:50:23.110Z,40.03
2022-08-05T08:52:03.487Z,39.28
2022-08-05T08:53:59.490Z,38.81
2022-08-05T08:56:03.948Z,38.15
2022-08-05T08:57:59.752Z,37.54
2022-08-05T08:59:58.910Z,37.08
2022-08-05T09:02:01.146Z,36.82
2022-08-05T09:03:59.194Z,36.37
2022-08-05T09:06:09.447Z,36.50
2022-08-05T09:08:00.440Z,36.47
2022-08-05T09:09:59.570Z,36.34
2022-08-05T09:12:12.245Z,36.44
2022-08-05T09:14:54.334Z,36.40
2022-08-05T09:16:00.948Z,36.31
2022-08-05T09:18:00.130Z,36.31
2022-08-05T09:20:02.630Z,36.62
2022-08-05T09:22:17.543Z,36.91
2022-08-05T09:24:02.530Z,37.21
2022-08-05T09:26:06.193Z,37.34
2022-08-05T09:28:04.192Z,37.57
2022-08-05T09:30:06.477Z,37.77
2022-08-05T09:32:51.103Z,37.60
2022-08-05T09:34:02.229Z,37.27
2022-08-05T09:36:06.086Z,36.15
2022-08-05T09:38:16.199Z,35.25
2022-08-05T09:40:02.622Z,34.47
2022-08-05T09:42:01.707Z,33.44
2022-08-05T09:44:01.944Z,32.48
2022-08-05T09:46:07.887Z,31.33
2022-08-05T09:48:03.093Z,30.36
2022-08-05T09:50:03.572Z,30.01
2022-08-05T09:52:02.348Z,29.78
2022-08-05T09:54:02.491Z,29.59
2022-08-05T09:56:05.025Z,29.63
2022-08-05T09:58:03.788Z,29.63
2022-08-05T10:00:07.577Z,29.89
2022-08-05T10:02:04.086Z,30.40
2022-08-05T10:04:03.189Z,31.12
2022-08-05T10:06:07.540Z,31.68
2022-08-05T10:08:35.913Z,32.19
2022-08-05T10:10:15.155Z,32.69
2022-08-05T10:12:18.710Z,32.89
2022-08-05T10:14:04.918Z,33.22
2022-08-05T10:16:04.012Z,33.28
2022-08-05T10:18:04.151Z,33.51
2022-08-05T10:20:10.919Z,33.60
2022-08-05T10:22:05.389Z,33.97
2022-08-05T10:24:10.606Z,34.19
2022-08-05T10:26:05.603Z,34.44
2022-08-05T10:28:13.458Z,34.50
2022-08-05T10:30:41.212Z,34.61
2022-08-05T10:32:52.798Z,34.78
2022-08-05T10:34:06.978Z,34.81
2022-08-05T10:36:05.318Z,34.99
2022-08-05T10:38:05.589Z,35.34
2022-08-05T10:40:17.909Z,35.52
2022-08-05T10:42:06.732Z,35.82
2022-08-05T10:44:06.529Z,36.22
2022-08-05T10:46:06.353Z,36.22
2022-08-05T10:48:29.212Z,35.97
2022-08-05T10:50:32.040Z,34.87
2022-08-05T10:52:10.324Z,33.49
2022-08-05T10:54:28.186Z,32.61
2022-08-05T10:56:21.521Z,31.49
2022-08-05T10:58:08.015Z,30.58
2022-08-05T11:00:09.929Z,29.86
2022-08-05T11:02:14.134Z,29.06
2022-08-05T11:04:08.357Z,29.00
2022-08-05T11:06:08.577Z,29.35
2022-08-05T11:08:27.653Z,29.63
2022-08-05T11:10:10.083Z,29.95
2022-08-05T11:12:07.762Z,30.62
2022-08-05T11:14:07.894Z,31.17
2022-08-05T11:16:07.994Z,31.87
2022-08-05T11:18:11.596Z,32.43
2022-08-05T11:20:11.288Z,32.79
2022-08-05T11:22:09.404Z,33.25
2022-08-05T11:24:30.337Z,33.87
2022-08-05T11:26:09.951Z,34.33
2022-08-05T11:28:08.735Z,34.99
2022-08-05T11:30:08.897Z,35.52
2022-08-05T11:32:09.111Z,36.25
2022-08-05T11:35:25.007Z,68.98
2022-08-05T11:38:45.391Z,85.90
2022-08-05T11:40:42.092Z,68.25
2022-08-05T11:42:41.228Z,60.30
2022-08-05T11:44:53.288Z,55.54
2022-08-05T11:47:09.154Z,52.83
2022-08-05T11:48:42.635Z,50.55
2022-08-05T11:50:41.702Z,49.48
2022-08-05T11:52:41.838Z,48.26
2022-08-05T11:54:43.553Z,47.88
2022-08-05T11:56:43.134Z,47.24
2022-08-05T11:58:43.337Z,47.26
2022-08-05T12:00:44.150Z,47.08
2022-08-05T12:02:42.644Z,46.41
2022-08-05T12:04:43.058Z,46.51
2022-08-05T12:06:48.993Z,46.77
2022-08-05T12:08:49.851Z,46.66
2022-08-05T12:10:46.074Z,47.13
2022-08-05T12:12:58.236Z,46.66
2022-08-05T12:14:47.368Z,46.97
2022-08-05T12:16:45.503Z,46.56
2022-08-05T12:18:52.466Z,46.30
2022-08-05T12:20:44.688Z,46.51
2022-08-05T12:22:46.257Z,46.41
2022-08-05T12:24:49.765Z,46.10
2022-08-05T12:26:45.130Z,46.41
2022-08-05T12:28:44.320Z,46.51
2022-08-05T12:30:45.804Z,47.13
2022-08-05T12:32:44.468Z,47.37
2022-08-05T12:34:45.802Z,47.58
2022-08-05T12:36:44.819Z,48.02
2022-08-05T12:38:44.982Z,48.13
2022-08-05T12:40:45.020Z,48.35
2022-08-05T12:42:45.239Z,48.54
2022-08-05T12:44:45.325Z,48.49
2022-08-05T12:46:45.629Z,48.24
2022-08-05T12:48:45.555Z,48.49
2022-08-05T12:50:45.704Z,47.88
2022-08-05T12:52:45.813Z,47.26
2022-08-05T12:54:45.902Z,47.56
2022-08-05T12:56:46.196Z,47.88
2022-08-05T12:58:53.095Z,48.26
2022-08-05T13:02:01.885Z,48.29
2022-08-05T13:02:47.479Z,48.49
2022-08-05T13:04:52.459Z,48.68
2022-08-05T13:06:51.659Z,48.65
2022-08-05T13:08:52.482Z,48.24
2022-08-05T13:10:50.292Z,48.43
2022-08-05T13:12:51.163Z,47.72
2022-08-05T13:14:48.249Z,47.64
2022-08-05T13:16:48.317Z,47.40
2022-08-05T13:18:47.481Z,47.24
2022-08-05T13:20:47.570Z,47.40
2022-08-05T13:22:47.712Z,46.97
2022-08-05T13:24:58.063Z,46.77
2022-08-05T13:26:50.740Z,46.41
2022-08-05T13:28:47.990Z,45.80
2022-08-05T13:30:53.163Z,45.07
2022-08-05T13:32:50.603Z,44.31
2022-08-05T13:34:48.362Z,43.76
2022-08-05T13:36:48.503Z,43.76
2022-08-05T13:38:52.081Z,43.45
2022-08-05T13:40:51.599Z,43.22
2022-08-05T13:42:48.948Z,42.96
2022-08-05T13:44:49.974Z,42.96
2022-08-05T13:47:02.483Z,42.83
2022-08-05T13:48:57.874Z,42.48
2022-08-05T13:50:50.412Z,42.06
2022-08-05T13:52:50.047Z,41.89
2022-08-05T13:54:53.281Z,41.36
2022-08-05T13:56:50.671Z,41.00
2022-08-05T13:58:52.743Z,40.72
2022-08-05T14:00:49.931Z,40.29
2022-08-05T14:02:50.199Z,40.10
2022-08-05T14:04:51.404Z,39.99
2022-08-05T14:06:58.892Z,39.95
2022-08-05T14:08:51.487Z,39.88
2022-08-05T14:10:50.738Z,39.91
2022-08-05T14:12:50.897Z,39.84
2022-08-05T14:14:51.404Z,39.88
2022-08-05T14:16:50.970Z,39.91
2022-08-05T14:18:51.134Z,39.95
2022-08-05T14:20:54.600Z,40.07
2022-08-05T14:22:51.288Z,40.03
2022-08-05T14:24:51.459Z,40.33
2022-08-05T14:27:15.758Z,40.57
2022-08-05T14:28:52.693Z,40.64
2022-08-05T14:30:52.236Z,40.92
2022-08-05T14:32:52.051Z,41.04
2022-08-05T14:34:52.137Z,41.24
2022-08-05T14:36:52.119Z,41.60
2022-08-05T14:38:52.317Z,41.77
2022-08-05T14:40:52.446Z,42.02
2022-08-05T14:42:54.934Z,41.98
2022-08-05T14:44:52.681Z,42.19
2022-08-05T14:46:52.792Z,42.15
2022-08-05T14:48:52.920Z,42.53
2022-08-05T14:50:53.061Z,42.66
2022-08-05T14:52:58.693Z,42.66
2022-08-05T14:54:54.589Z,42.78
2022-08-05T14:56:54.707Z,43.05
2022-08-05T14:58:53.590Z,42.87
2022-08-05T15:00:58.267Z,43.13
2022-08-05T15:02:54.981Z,42.96
2022-08-05T15:04:54.046Z,43.13
2022-08-05T15:06:54.190Z,43.40
2022-08-05T15:08:59.673Z,43.40
2022-08-05T15:10:55.463Z,43.36
2022-08-05T15:13:01.204Z,43.49
2022-08-05T15:14:56.082Z,43.53
2022-08-05T15:16:55.691Z,43.62
2022-08-05T15:18:54.975Z,43.94
2022-08-05T15:20:55.133Z,43.99
2022-08-05T15:22:55.263Z,43.94
2022-08-05T15:24:55.711Z,44.08
2022-08-05T15:26:55.853Z,44.22
2022-08-05T15:28:55.621Z,44.13
2022-08-05T15:30:55.806Z,44.40
2022-08-05T15:32:55.918Z,44.59
2022-08-05T15:34:56.215Z,44.69
2022-08-05T15:36:56.195Z,44.59
2022-08-05T15:40:41.534Z,44.97
2022-08-05T15:41:20.324Z,45.21
2022-08-05T15:43:07.922Z,45.21
2022-08-05T15:44:57.747Z,45.36
2022-08-05T15:46:57.027Z,45.56
2022-08-05T15:49:01.476Z,45.60
2022-08-05T15:50:58.152Z,45.75
2022-08-05T15:53:03.536Z,46.00
2022-08-05T15:54:58.403Z,45.95
2022-08-05T15:56:57.616Z,46.05
2022-08-05T15:58:57.685Z,46.00
2022-08-05T16:01:12.040Z,46.05
2022-08-05T16:02:59.132Z,46.35
2022-08-05T16:04:58.083Z,46.25
2022-08-05T16:06:58.268Z,45.95
2022-08-05T16:08:58.346Z,46.00
2022-08-05T16:10:58.700Z,45.85
2022-08-05T16:12:58.679Z,46.15
2022-08-05T16:14:58.945Z,46.05
2022-08-05T16:16:58.937Z,46.05
2022-08-05T16:18:59.141Z,45.80
2022-08-05T16:20:59.241Z,45.75
2022-08-05T16:22:59.392Z,45.70
2022-08-05T16:24:59.496Z,45.90
2022-08-05T16:26:59.604Z,46.05
2022-08-05T16:28:59.759Z,46.46
2022-08-05T16:30:59.923Z,46.82
2022-08-05T16:33:00.020Z,46.92
2022-08-05T16:35:00.136Z,47.32
2022-08-05T16:37:00.280Z,47.83
2022-08-05T16:39:00.490Z,48.40
2022-08-05T16:41:01.396Z,48.40
2022-08-05T16:43:00.729Z,48.71
2022-08-05T16:45:00.838Z,48.94
2022-08-05T16:47:01.041Z,49.22
2022-08-05T16:49:01.098Z,49.05
2022-08-05T16:51:01.317Z,49.28
2022-08-05T16:53:09.181Z,49.71
2022-08-05T16:55:02.621Z,50.10
2022-08-05T16:57:01.640Z,50.70
2022-08-05T16:59:01.885Z,50.67
2022-08-05T17:01:02.925Z,51.01
2022-08-05T17:03:02.010Z,51.41
2022-08-05T17:05:02.179Z,51.50
2022-08-05T17:07:03.437Z,51.95
2022-08-05T17:09:03.430Z,52.11
2022-08-05T17:11:02.591Z,52.21
2022-08-05T17:13:02.687Z,52.60
2022-08-05T17:15:02.873Z,52.86
2022-08-05T17:17:02.991Z,52.93
2022-08-05T17:19:07.750Z,52.99
2022-08-05T17:21:04.589Z,53.23
2022-08-05T17:23:03.376Z,53.60
2022-08-05T17:25:03.467Z,53.74
2022-08-05T17:27:04.618Z,53.80
2022-08-05T17:29:07.365Z,53.80
2022-08-05T17:31:08.403Z,54.15
2022-08-05T17:33:04.993Z,54.18
2022-08-05T17:35:04.116Z,54.36
2022-08-05T17:37:04.671Z,54.25
2022-08-05T17:39:05.422Z,54.43
2022-08-05T17:41:05.497Z,54.32
2022-08-05T17:43:07.764Z,54.82
2022-08-05T17:45:09.743Z,54.71
2022-08-05T17:47:05.939Z,54.67
2022-08-05T17:49:05.047Z,54.67
2022-08-05T17:51:09.035Z,54.82
2022-08-05T17:53:05.347Z,54.89
2022-08-05T17:55:08.002Z,54.96
2022-08-05T17:57:05.581Z,55.25
2022-08-05T17:59:06.710Z,54.89
2022-08-05T18:01:09.592Z,55.28
2022-08-05T18:03:06.070Z,55.14
2022-08-05T18:05:07.787Z,55.28
2022-08-05T18:07:06.348Z,55.03
2022-08-05T18:09:09.549Z,55.17
2022-08-05T18:11:07.528Z,55.10
2022-08-05T18:13:12.294Z,55.50
2022-08-05T18:15:08.854Z,55.21
2022-08-05T18:17:06.974Z,55.69
2022-08-05T18:19:08.150Z,55.72
2022-08-05T18:21:13.342Z,55.72
2022-08-05T18:23:11.926Z,55.80
2022-08-05T18:25:07.464Z,55.83
2022-08-05T18:27:12.932Z,56.02
2022-08-05T18:29:10.447Z,56.13
2022-08-05T18:31:07.860Z,56.24
2022-08-05T18:33:07.897Z,56.35
2022-08-05T18:35:08.093Z,56.54
2022-08-05T18:37:12.326Z,56.51
2022-08-05T18:39:09.752Z,56.73
2022-08-05T18:41:59.594Z,56.77
2022-08-05T18:43:16.120Z,56.70
2022-08-05T18:45:09.773Z,56.92
2022-08-05T18:47:08.845Z,57.00
2022-08-05T18:49:08.919Z,57.27
2022-08-05T18:52:04.149Z,57.23
2022-08-05T18:53:17.567Z,57.51
2022-08-05T18:55:10.873Z,57.86
2022-08-05T18:57:09.424Z,58.14
2022-08-05T18:59:43.351Z,57.94
2022-08-05T19:01:18.287Z,58.38
2022-08-05T19:03:10.774Z,58.26
2022-08-05T19:06:11.670Z,58.58
2022-08-05T19:07:11.002Z,58.83
2022-08-05T19:09:10.129Z,58.91
2022-08-05T19:11:10.294Z,59.12
2022-08-05T19:13:12.327Z,59.24
2022-08-05T19:15:58.108Z,59.54
2022-08-05T19:17:11.660Z,59.62
2022-08-05T19:19:10.886Z,59.92
2022-08-05T19:21:10.875Z,60.13
2022-08-05T19:24:03.795Z,60.17
2022-08-05T19:25:21.594Z,60.52
2022-08-05T19:27:12.307Z,60.35
2022-08-05T19:29:11.442Z,60.96
2022-08-05T19:31:12.965Z,60.96
2022-08-05T19:33:12.944Z,61.53
2022-08-05T19:35:12.830Z,61.44
2022-08-05T19:37:11.944Z,61.40
2022-08-05T19:39:12.136Z,61.58
2022-08-05T19:41:13.206Z,61.71
2022-08-05T19:44:03.906Z,62.03
2022-08-05T19:45:14.418Z,62.35
2022-08-05T19:47:12.524Z,62.49
2022-08-05T19:49:16.858Z,62.77
2022-08-05T19:51:12.801Z,62.77
2022-08-05T19:53:13.908Z,62.86
2022-08-05T19:56:14.733Z,63.10
2022-08-05T19:57:14.156Z,63.38
2022-08-05T19:59:21.656Z,63.43
2022-08-05T20:01:14.633Z,64.01
2022-08-05T20:03:13.497Z,64.06
2022-08-05T20:05:16.641Z,64.15
2022-08-05T20:07:14.737Z,64.50
2022-08-05T20:09:14.452Z,64.74
2022-08-05T20:11:13.980Z,64.94
2022-08-05T20:13:15.458Z,65.09
2022-08-05T20:15:14.224Z,65.45
2022-08-05T20:17:14.382Z,65.60
2022-08-05T20:19:14.464Z,65.60
2022-08-05T20:21:14.626Z,66.01
2022-08-05T20:23:14.749Z,66.17
2022-08-05T20:25:14.867Z,66.27
2022-08-05T20:27:14.990Z,66.58
2022-08-05T20:29:26.540Z,66.79
2022-08-05T20:31:16.677Z,66.90
2022-08-05T20:33:15.469Z,66.79
2022-08-05T20:35:15.498Z,67.22
2022-08-05T20:37:18.129Z,67.27
2022-08-05T20:39:17.124Z,67.43
2022-08-05T20:41:17.653Z,67.17
2022-08-05T20:43:16.975Z,67.17
2022-08-05T20:45:17.112Z,67.33
2022-08-05T20:47:16.249Z,67.17
2022-08-05T20:49:24.187Z,67.76
2022-08-05T20:51:17.723Z,67.38
2022-08-05T20:53:36.854Z,67.54
2022-08-05T20:56:07.230Z,67.87
2022-08-05T20:57:24.632Z,67.71
2022-08-05T20:59:26.654Z,67.81
2022-08-05T21:01:18.225Z,67.76
2022-08-05T21:03:20.609Z,67.98
2022-08-05T21:05:17.300Z,68.14
2022-08-05T21:07:17.357Z,68.25
2022-08-05T21:09:17.594Z,68.36
2022-08-05T21:12:07.354Z,68.47
2022-08-05T21:13:26.202Z,68.81
2022-08-05T21:15:18.894Z,68.53
2022-08-05T21:17:18.022Z,68.47
2022-08-05T21:19:18.207Z,68.36
2022-08-05T21:21:18.318Z,68.59
2022-08-05T21:23:19.419Z,68.42
2022-08-05T21:25:18.587Z,68.87
2022-08-05T21:27:18.670Z,68.70
2022-08-05T21:29:18.802Z,68.59
2022-08-05T21:31:18.933Z,68.47
2022-08-05T21:33:22.403Z,68.53
2022-08-05T21:35:29.950Z,68.42
2022-08-05T21:37:20.294Z,68.59
2022-08-05T21:39:26.997Z,68.92
2022-08-05T21:41:20.810Z,68.53
2022-08-05T21:43:24.608Z,68.47
2022-08-05T21:45:24.749Z,68.64
2022-08-05T21:47:54.798Z,68.75
2022-08-05T21:49:56.925Z,68.92
2022-08-05T21:52:16.118Z,68.75
2022-08-05T21:53:21.275Z,68.70
2022-08-05T21:55:42.891Z,68.75
2022-08-05T21:57:31.624Z,68.59
2022-08-05T21:59:23.967Z,68.64
2022-08-05T22:01:24.717Z,68.09
2022-08-05T22:03:48.230Z,68.47
2022-08-05T22:05:22.108Z,68.53
2022-08-05T22:07:23.169Z,68.47
2022-08-05T22:09:22.400Z,68.42
2022-08-05T22:11:34.734Z,68.53
2022-08-05T22:14:31.559Z,68.75
2022-08-05T22:16:00.529Z,68.59
2022-08-05T22:17:22.810Z,68.81
2022-08-05T22:20:00.502Z,68.81
2022-08-05T22:21:23.053Z,69.09
2022-08-05T22:23:22.683Z,68.98
2022-08-05T22:25:27.724Z,68.53
2022-08-05T22:27:23.401Z,69.09
2022-08-05T22:29:26.145Z,68.98
2022-08-05T22:31:22.665Z,68.81
2022-08-05T22:33:57.456Z,69.04
2022-08-05T22:35:23.909Z,69.26
2022-08-05T22:37:23.031Z,69.09
2022-08-05T22:39:24.246Z,69.26
2022-08-05T22:42:05.143Z,69.04
2022-08-05T22:43:37.311Z,69.15
2022-08-05T22:45:24.545Z,69.38
2022-08-05T22:47:30.005Z,69.26
2022-08-05T22:50:19.029Z,69.26
2022-08-05T22:52:04.521Z,69.38
2022-08-05T22:53:25.018Z,69.72
2022-08-05T22:55:26.091Z,69.89
2022-08-05T22:57:24.250Z,70.01
2022-08-05T22:59:45.331Z,70.24
2022-08-05T23:01:25.590Z,69.95
2022-08-05T23:03:57.964Z,70.24
2022-08-05T23:05:25.811Z,70.48
2022-08-05T23:07:24.931Z,70.30
2022-08-05T23:09:52.647Z,70.59
2022-08-05T23:11:26.383Z,70.65
2022-08-05T23:13:25.226Z,71.31
2022-08-05T23:15:29.610Z,70.89
2022-08-05T23:17:34.262Z,71.13
2022-08-05T23:19:26.609Z,71.55
2022-08-05T23:21:25.736Z,71.37
2022-08-05T23:23:29.904Z,71.86
2022-08-05T23:25:52.860Z,71.86
2022-08-05T23:27:31.310Z,71.55
2022-08-05T23:29:27.246Z,71.92
2022-08-05T23:31:27.426Z,72.60
2022-08-05T23:34:04.821Z,72.72
2022-08-05T23:35:28.682Z,72.54
2022-08-05T23:37:34.193Z,72.66
2022-08-05T23:39:44.425Z,72.85
2022-08-05T23:41:28.070Z,72.79
2022-08-05T23:43:37.323Z,72.98
2022-08-05T23:45:28.311Z,73.10
2022-08-05T23:47:27.443Z,73.29
2022-08-05T23:49:34.107Z,73.23
2022-08-05T23:51:28.682Z,73.04
2022-08-05T23:53:28.413Z,73.68
2022-08-05T23:55:31.044Z,73.42
2022-08-05T23:57:28.486Z,73.68
